Portada
METAR-TAF:

METAR-TAF

Aeroports :

Saint-Pierre, Saint-Pierre i Miquelon

latitud: 46-46N, longitud: 056-10W, altitud: 3 m

Observació

L'informe es va fer fa 20 minuts, a les 18:30 UTC
Vent 14 kt del Est/Nord-Est
Temperatura 5°C
Humitat 87%
Pressió 1018 hPa
Visibilitat 10 km o més
Cel ennuvolat a una alçada de 2500 ft

METAR: LFVP 091830Z AUTO 06014KT 9999 BKN025 05/03 Q1018 NOSIG

Hora: 15:50 (18:50 UTC)

Pronòstic

L'informe es va fer fa 1 hora i 50 minuts, a les 17:00 UTC
Pronòstic vàlid del 09 a les 18 UTC al 10 a les 03 UTC
Vent 17 kt del Est/Nord-Est
Visibilitat 10 km o més
Cel ennuvolat a una alçada de 2500 ft
Temporalment
l' 09 a les 22 UTC al 10 a les 03 UTC
Visibilitat: 2500 m
boirina

TAF: LFVP 091700Z 0918/1003 06017KT 9999 BKN025 TEMPO 0922/1003 2500 BR

Observacions i pronòstics meteorològics de més de 4000 aeroports (METAR i TAF).

Les estacions disponibles són els punts grocs i vermells al mapa.

Posi el ratolí al punt desitjat per veure el nom de l'estació.

Feu clic per veure les observacions i els pronòstics meteorològics.

Per canviar el mapa: feu clic els botons verds amb una creu de color negre per apropar; al botó verd amb un guió per allunyar la imatge; o en les fletxes verdes per a mapes adjacents.


METAR-TAF: